Terminal Aerodrome Forecast
Issued by NWS

Home | Current Version | Previous Version | Graphics & Text | Print | Product List | Glossary On
Versions: 1 2 3 4 5 6 7 8 9 10 11 12 13 14 15
000
FTUS42 KMHX 161300 AAA
TAFISO
TAF AMD
KISO 161306Z 1613/1712 17004KT 1SM BR VV007
     FM161500 21008KT P6SM VCSH BKN040
     FM170100 27005KT P6SM BKN100
      AMD LTD TO CLD VIS AND WIND=

USA.gov is the U.S. government's official web portal to all federal, state and local government web resources and services.